sensor_id;sensor_type;location;lat;lon;timestamp;P1;durP1;ratioP1;P2;durP2;ratioP2
18917;SDS011;9591;52.742;13.650;2023-04-01T00:01:07;12.30;;;6.90;;
18917;SDS011;9591;52.742;13.650;2023-04-01T00:03:56;11.80;;;6.60;;
18917;SDS011;9591;52.742;13.650;2023-04-01T00:06:42;12.20;;;7.27;;
18917;SDS011;9591;52.742;13.650;2023-04-01T00:09:30;12.63;;;7.10;;
18917;SDS011;9591;52.742;13.650;2023-04-01T00:12:17;13.60;;;7.20;;
18917;SDS011;9591;52.742;13.650;2023-04-01T00:15:05;13.33;;;6.93;;
18917;SDS011;9591;52.742;13.650;2023-04-01T00:17:54;10.53;;;6.27;;
18917;SDS011;9591;52.742;13.650;2023-04-01T00:20:42;12.87;;;7.43;;
18917;SDS011;9591;52.742;13.650;2023-04-01T00:23:30;15.00;;;7.27;;
18917;SDS011;9591;52.742;13.650;2023-04-01T00:26:19;15.27;;;7.43;;
18917;SDS011;9591;52.742;13.650;2023-04-01T00:29:07;13.60;;;7.33;;
18917;SDS011;9591;52.742;13.650;2023-04-01T00:31:54;12.53;;;6.83;;
18917;SDS011;9591;52.742;13.650;2023-04-01T00:34:42;14.63;;;7.13;;
18917;SDS011;9591;52.742;13.650;2023-04-01T00:37:29;14.80;;;7.57;;
18917;SDS011;9591;52.742;13.650;2023-04-01T00:40:22;12.50;;;6.60;;
18917;SDS011;9591;52.742;13.650;2023-04-01T00:43:13;12.40;;;6.50;;
18917;SDS011;9591;52.742;13.650;2023-04-01T00:46:03;13.33;;;6.53;;
18917;SDS011;9591;52.742;13.650;2023-04-01T00:48:51;15.17;;;6.73;;
18917;SDS011;9591;52.742;13.650;2023-04-01T00:51:42;16.07;;;6.60;;
18917;SDS011;9591;52.742;13.650;2023-04-01T00:54:31;13.40;;;7.33;;
18917;SDS011;9591;52.742;13.650;2023-04-01T00:57:19;15.17;;;7.33;;
18917;SDS011;9591;52.742;13.650;2023-04-01T01:00:13;13.63;;;7.37;;
18917;SDS011;9591;52.742;13.650;2023-04-01T01:03:01;13.63;;;6.17;;
18917;SDS011;9591;52.742;13.650;2023-04-01T01:06:04;12.63;;;7.13;;
18917;SDS011;9591;52.742;13.650;2023-04-01T01:09:02;12.73;;;6.73;;
18917;SDS011;9591;52.742;13.650;2023-04-01T01:12:01;14.50;;;7.07;;
18917;SDS011;9591;52.742;13.650;2023-04-01T01:14:55;11.57;;;6.10;;
18917;SDS011;9591;52.742;13.650;2023-04-01T01:17:52;13.80;;;7.30;;
18917;SDS011;9591;52.742;13.650;2023-04-01T01:20:52;12.83;;;6.63;;
18917;SDS011;9591;52.742;13.650;2023-04-01T01:24:04;16.77;;;6.70;;
18917;SDS011;9591;52.742;13.650;2023-04-01T01:26:59;13.63;;;6.83;;
18917;SDS011;9591;52.742;13.650;2023-04-01T01:33:02;10.60;;;5.73;;
18917;SDS011;9591;52.742;13.650;2023-04-01T01:36:10;13.13;;;6.53;;
18917;SDS011;9591;52.742;13.650;2023-04-01T01:39:00;14.53;;;6.73;;
18917;SDS011;9591;52.742;13.650;2023-04-01T01:41:49;14.57;;;6.77;;
18917;SDS011;9591;52.742;13.650;2023-04-01T01:44:36;14.60;;;6.20;;
18917;SDS011;9591;52.742;13.650;2023-04-01T01:47:24;13.97;;;7.03;;
18917;SDS011;9591;52.742;13.650;2023-04-01T01:50:12;17.23;;;6.47;;
18917;SDS011;9591;52.742;13.650;2023-04-01T01:53:02;10.70;;;6.03;;
18917;SDS011;9591;52.742;13.650;2023-04-01T01:55:50;11.53;;;6.20;;
18917;SDS011;9591;52.742;13.650;2023-04-01T01:58:37;12.80;;;6.50;;
18917;SDS011;9591;52.742;13.650;2023-04-01T02:01:31;10.43;;;6.17;;
18917;SDS011;9591;52.742;13.650;2023-04-01T02:04:28;12.47;;;6.13;;
18917;SDS011;9591;52.742;13.650;2023-04-01T02:07:16;11.90;;;6.53;;
18917;SDS011;9591;52.742;13.650;2023-04-01T02:10:08;13.13;;;6.13;;
18917;SDS011;9591;52.742;13.650;2023-04-01T02:12:56;10.73;;;5.63;;
18917;SDS011;9591;52.742;13.650;2023-04-01T02:15:48;15.30;;;5.80;;
18917;SDS011;9591;52.742;13.650;2023-04-01T02:18:37;11.53;;;6.27;;
18917;SDS011;9591;52.742;13.650;2023-04-01T02:21:26;14.70;;;5.63;;
18917;SDS011;9591;52.742;13.650;2023-04-01T02:24:17;10.03;;;5.80;;
18917;SDS011;9591;52.742;13.650;2023-04-01T02:27:08;14.57;;;6.10;;
18917;SDS011;9591;52.742;13.650;2023-04-01T02:29:56;13.90;;;6.67;;
18917;SDS011;9591;52.742;13.650;2023-04-01T02:32:43;12.27;;;5.67;;
18917;SDS011;9591;52.742;13.650;2023-04-01T02:35:32;19.40;;;6.10;;
18917;SDS011;9591;52.742;13.650;2023-04-01T02:38:21;12.83;;;5.83;;
18917;SDS011;9591;52.742;13.650;2023-04-01T02:41:08;10.47;;;6.03;;
18917;SDS011;9591;52.742;13.650;2023-04-01T02:43:57;15.60;;;6.40;;
18917;SDS011;9591;52.742;13.650;2023-04-01T02:46:44;9.53;;;5.47;;
18917;SDS011;9591;52.742;13.650;2023-04-01T02:49:31;10.97;;;6.20;;
18917;SDS011;9591;52.742;13.650;2023-04-01T02:52:18;13.97;;;6.07;;
18917;SDS011;9591;52.742;13.650;2023-04-01T02:55:05;12.23;;;6.20;;
18917;SDS011;9591;52.742;13.650;2023-04-01T02:57:52;10.93;;;5.77;;
18917;SDS011;9591;52.742;13.650;2023-04-01T03:00:40;9.00;;;5.47;;
18917;SDS011;9591;52.742;13.650;2023-04-01T03:03:27;15.37;;;6.00;;
18917;SDS011;9591;52.742;13.650;2023-04-01T03:06:14;11.93;;;5.67;;
18917;SDS011;9591;52.742;13.650;2023-04-01T03:09:02;10.77;;;5.57;;
18917;SDS011;9591;52.742;13.650;2023-04-01T03:11:49;14.40;;;5.50;;
18917;SDS011;9591;52.742;13.650;2023-04-01T03:14:36;14.27;;;5.97;;
18917;SDS011;9591;52.742;13.650;2023-04-01T03:17:24;12.10;;;6.23;;
18917;SDS011;9591;52.742;13.650;2023-04-01T03:20:11;12.40;;;5.30;;
18917;SDS011;9591;52.742;13.650;2023-04-01T03:22:59;8.93;;;5.30;;
18917;SDS011;9591;52.742;13.650;2023-04-01T03:25:46;7.93;;;4.97;;
18917;SDS011;9591;52.742;13.650;2023-04-01T03:28:33;7.47;;;4.93;;
18917;SDS011;9591;52.742;13.650;2023-04-01T03:31:20;21.03;;;5.83;;
18917;SDS011;9591;52.742;13.650;2023-04-01T03:34:13;9.07;;;5.23;;
18917;SDS011;9591;52.742;13.650;2023-04-01T03:37:00;18.13;;;5.60;;
18917;SDS011;9591;52.742;13.650;2023-04-01T03:39:47;11.20;;;5.63;;
18917;SDS011;9591;52.742;13.650;2023-04-01T03:42:34;9.73;;;5.63;;
18917;SDS011;9591;52.742;13.650;2023-04-01T03:45:21;15.87;;;6.23;;
18917;SDS011;9591;52.742;13.650;2023-04-01T03:48:08;12.47;;;5.53;;
18917;SDS011;9591;52.742;13.650;2023-04-01T03:50:56;13.03;;;5.90;;
18917;SDS011;9591;52.742;13.650;2023-04-01T03:53:43;18.07;;;5.87;;
18917;SDS011;9591;52.742;13.650;2023-04-01T03:56:29;13.47;;;5.37;;
18917;SDS011;9591;52.742;13.650;2023-04-01T03:59:16;10.07;;;5.27;;
18917;SDS011;9591;52.742;13.650;2023-04-01T04:02:03;13.87;;;5.70;;
18917;SDS011;9591;52.742;13.650;2023-04-01T04:04:51;13.07;;;5.30;;
18917;SDS011;9591;52.742;13.650;2023-04-01T04:07:39;12.17;;;5.47;;
18917;SDS011;9591;52.742;13.650;2023-04-01T04:10:26;12.93;;;5.47;;
18917;SDS011;9591;52.742;13.650;2023-04-01T04:13:14;18.87;;;5.93;;
18917;SDS011;9591;52.742;13.650;2023-04-01T04:16:08;12.23;;;5.30;;
18917;SDS011;9591;52.742;13.650;2023-04-01T04:18:59;10.20;;;4.90;;
18917;SDS011;9591;52.742;13.650;2023-04-01T04:21:46;12.00;;;5.57;;
18917;SDS011;9591;52.742;13.650;2023-04-01T04:24:35;11.70;;;5.50;;
18917;SDS011;9591;52.742;13.650;2023-04-01T04:27:28;14.07;;;5.73;;
18917;SDS011;9591;52.742;13.650;2023-04-01T04:30:34;10.03;;;5.03;;
18917;SDS011;9591;52.742;13.650;2023-04-01T04:33:22;12.13;;;5.43;;
18917;SDS011;9591;52.742;13.650;2023-04-01T04:36:09;8.53;;;4.77;;
18917;SDS011;9591;52.742;13.650;2023-04-01T04:38:56;10.13;;;5.13;;
18917;SDS011;9591;52.742;13.650;2023-04-01T04:41:49;10.97;;;4.97;;
18917;SDS011;9591;52.742;13.650;2023-04-01T04:44:36;15.77;;;5.47;;
18917;SDS011;9591;52.742;13.650;2023-04-01T04:47:24;11.60;;;5.97;;
18917;SDS011;9591;52.742;13.650;2023-04-01T04:50:10;10.47;;;5.10;;
18917;SDS011;9591;52.742;13.650;2023-04-01T04:52:58;15.67;;;7.23;;
18917;SDS011;9591;52.742;13.650;2023-04-01T04:55:45;11.67;;;5.47;;
18917;SDS011;9591;52.742;13.650;2023-04-01T04:58:54;16.87;;;5.57;;
18917;SDS011;9591;52.742;13.650;2023-04-01T05:01:51;9.93;;;4.90;;
18917;SDS011;9591;52.742;13.650;2023-04-01T05:04:38;11.27;;;5.43;;
18917;SDS011;9591;52.742;13.650;2023-04-01T05:07:27;9.60;;;4.73;;
18917;SDS011;9591;52.742;13.650;2023-04-01T05:10:14;20.83;;;5.83;;
18917;SDS011;9591;52.742;13.650;2023-04-01T05:13:02;13.80;;;5.57;;
18917;SDS011;9591;52.742;13.650;2023-04-01T05:15:50;17.00;;;6.13;;
18917;SDS011;9591;52.742;13.650;2023-04-01T05:18:37;11.53;;;5.33;;
18917;SDS011;9591;52.742;13.650;2023-04-01T05:21:24;13.87;;;5.27;;
18917;SDS011;9591;52.742;13.650;2023-04-01T05:24:13;11.23;;;5.53;;
18917;SDS011;9591;52.742;13.650;2023-04-01T05:27:00;12.37;;;5.83;;
18917;SDS011;9591;52.742;13.650;2023-04-01T05:29:47;14.67;;;6.77;;
18917;SDS011;9591;52.742;13.650;2023-04-01T05:32:55;21.43;;;6.50;;
18917;SDS011;9591;52.742;13.650;2023-04-01T05:35:41;14.07;;;6.40;;
18917;SDS011;9591;52.742;13.650;2023-04-01T05:38:30;15.17;;;6.20;;
18917;SDS011;9591;52.742;13.650;2023-04-01T05:41:17;16.63;;;6.80;;
18917;SDS011;9591;52.742;13.650;2023-04-01T05:44:04;14.77;;;5.73;;
18917;SDS011;9591;52.742;13.650;2023-04-01T05:47:15;15.37;;;5.63;;
18917;SDS011;9591;52.742;13.650;2023-04-01T05:50:06;14.53;;;6.10;;
18917;SDS011;9591;52.742;13.650;2023-04-01T05:52:54;14.10;;;6.10;;
18917;SDS011;9591;52.742;13.650;2023-04-01T05:55:43;12.60;;;6.27;;
18917;SDS011;9591;52.742;13.650;2023-04-01T05:58:32;14.87;;;6.70;;
18917;SDS011;9591;52.742;13.650;2023-04-01T06:01:20;15.77;;;6.63;;
18917;SDS011;9591;52.742;13.650;2023-04-01T06:04:10;14.80;;;6.73;;
18917;SDS011;9591;52.742;13.650;2023-04-01T06:07:08;16.00;;;5.77;;
18917;SDS011;9591;52.742;13.650;2023-04-01T06:09:59;14.87;;;6.30;;
18917;SDS011;9591;52.742;13.650;2023-04-01T06:12:49;14.23;;;5.83;;
18917;SDS011;9591;52.742;13.650;2023-04-01T06:15:43;14.43;;;6.13;;
18917;SDS011;9591;52.742;13.650;2023-04-01T06:19:03;19.53;;;6.10;;
18917;SDS011;9591;52.742;13.650;2023-04-01T06:22:13;18.87;;;6.93;;
18917;SDS011;9591;52.742;13.650;2023-04-01T06:25:29;16.53;;;7.43;;
18917;SDS011;9591;52.742;13.650;2023-04-01T06:31:38;11.33;;;5.77;;
18917;SDS011;9591;52.742;13.650;2023-04-01T06:34:50;16.87;;;5.90;;
18917;SDS011;9591;52.742;13.650;2023-04-01T06:37:52;16.57;;;6.03;;
18917;SDS011;9591;52.742;13.650;2023-04-01T06:41:23;14.30;;;5.67;;
18917;SDS011;9591;52.742;13.650;2023-04-01T06:44:23;13.23;;;5.77;;
18917;SDS011;9591;52.742;13.650;2023-04-01T06:47:45;10.87;;;5.30;;
18917;SDS011;9591;52.742;13.650;2023-04-01T06:51:01;14.63;;;5.73;;
18917;SDS011;9591;52.742;13.650;2023-04-01T06:54:21;10.57;;;6.13;;
18917;SDS011;9591;52.742;13.650;2023-04-01T06:57:24;13.30;;;6.03;;
18917;SDS011;9591;52.742;13.650;2023-04-01T07:00:19;18.50;;;7.23;;
18917;SDS011;9591;52.742;13.650;2023-04-01T07:03:15;12.67;;;5.83;;
18917;SDS011;9591;52.742;13.650;2023-04-01T07:06:09;14.87;;;6.20;;
18917;SDS011;9591;52.742;13.650;2023-04-01T07:09:10;11.83;;;6.13;;
18917;SDS011;9591;52.742;13.650;2023-04-01T07:12:32;11.73;;;5.70;;
18917;SDS011;9591;52.742;13.650;2023-04-01T07:15:43;11.97;;;5.83;;
18917;SDS011;9591;52.742;13.650;2023-04-01T07:18:37;11.43;;;5.50;;
18917;SDS011;9591;52.742;13.650;2023-04-01T07:21:29;13.37;;;6.00;;
18917;SDS011;9591;52.742;13.650;2023-04-01T07:24:32;13.30;;;6.33;;
18917;SDS011;9591;52.742;13.650;2023-04-01T07:27:26;15.10;;;7.40;;
18917;SDS011;9591;52.742;13.650;2023-04-01T07:30:14;11.63;;;6.57;;
18917;SDS011;9591;52.742;13.650;2023-04-01T07:33:03;13.37;;;6.20;;
18917;SDS011;9591;52.742;13.650;2023-04-01T07:35:55;10.87;;;6.43;;
18917;SDS011;9591;52.742;13.650;2023-04-01T07:38:52;10.93;;;6.27;;
18917;SDS011;9591;52.742;13.650;2023-04-01T07:42:09;14.50;;;6.47;;
18917;SDS011;9591;52.742;13.650;2023-04-01T07:45:11;13.00;;;5.63;;
18917;SDS011;9591;52.742;13.650;2023-04-01T07:48:08;10.97;;;5.67;;
18917;SDS011;9591;52.742;13.650;2023-04-01T07:51:08;10.53;;;6.17;;
18917;SDS011;9591;52.742;13.650;2023-04-01T07:54:02;13.70;;;6.93;;
18917;SDS011;9591;52.742;13.650;2023-04-01T07:56:55;14.27;;;7.27;;
18917;SDS011;9591;52.742;13.650;2023-04-01T08:00:02;12.83;;;6.77;;
18917;SDS011;9591;52.742;13.650;2023-04-01T08:03:18;14.47;;;7.47;;
18917;SDS011;9591;52.742;13.650;2023-04-01T08:06:19;12.63;;;7.03;;
18917;SDS011;9591;52.742;13.650;2023-04-01T08:09:14;13.03;;;6.30;;
18917;SDS011;9591;52.742;13.650;2023-04-01T08:12:27;11.73;;;6.93;;
18917;SDS011;9591;52.742;13.650;2023-04-01T08:15:45;10.57;;;6.00;;
18917;SDS011;9591;52.742;13.650;2023-04-01T08:18:55;9.20;;;5.87;;
18917;SDS011;9591;52.742;13.650;2023-04-01T08:21:52;13.03;;;6.70;;
18917;SDS011;9591;52.742;13.650;2023-04-01T08:24:41;9.50;;;5.73;;
18917;SDS011;9591;52.742;13.650;2023-04-01T08:27:39;10.53;;;6.43;;
18917;SDS011;9591;52.742;13.650;2023-04-01T08:30:33;9.50;;;6.07;;
18917;SDS011;9591;52.742;13.650;2023-04-01T08:33:27;10.00;;;5.90;;
18917;SDS011;9591;52.742;13.650;2023-04-01T08:36:31;12.10;;;6.30;;
18917;SDS011;9591;52.742;13.650;2023-04-01T08:39:48;12.90;;;6.80;;
18917;SDS011;9591;52.742;13.650;2023-04-01T08:42:43;10.27;;;6.33;;
18917;SDS011;9591;52.742;13.650;2023-04-01T08:45:54;12.30;;;6.23;;
18917;SDS011;9591;52.742;13.650;2023-04-01T08:48:48;9.63;;;5.93;;
18917;SDS011;9591;52.742;13.650;2023-04-01T08:52:05;15.80;;;7.30;;
18917;SDS011;9591;52.742;13.650;2023-04-01T08:55:20;11.53;;;7.23;;
18917;SDS011;9591;52.742;13.650;2023-04-01T09:02:04;14.87;;;7.03;;
18917;SDS011;9591;52.742;13.650;2023-04-01T09:05:22;12.37;;;7.13;;
18917;SDS011;9591;52.742;13.650;2023-04-01T09:08:24;13.57;;;7.37;;
18917;SDS011;9591;52.742;13.650;2023-04-01T09:11:28;13.83;;;7.43;;
18917;SDS011;9591;52.742;13.650;2023-04-01T09:15:02;13.90;;;7.10;;
18917;SDS011;9591;52.742;13.650;2023-04-01T09:18:15;11.10;;;6.23;;
18917;SDS011;9591;52.742;13.650;2023-04-01T09:21:19;11.50;;;6.73;;
18917;SDS011;9591;52.742;13.650;2023-04-01T09:27:35;11.40;;;6.33;;
18917;SDS011;9591;52.742;13.650;2023-04-01T09:30:40;12.63;;;6.93;;
18917;SDS011;9591;52.742;13.650;2023-04-01T09:34:04;10.20;;;6.07;;
18917;SDS011;9591;52.742;13.650;2023-04-01T09:37:21;9.60;;;5.77;;
18917;SDS011;9591;52.742;13.650;2023-04-01T09:40:33;10.83;;;5.90;;
18917;SDS011;9591;52.742;13.650;2023-04-01T09:43:33;10.63;;;5.90;;
18917;SDS011;9591;52.742;13.650;2023-04-01T09:46:38;10.07;;;5.90;;
18917;SDS011;9591;52.742;13.650;2023-04-01T09:52:48;10.73;;;5.83;;
18917;SDS011;9591;52.742;13.650;2023-04-01T09:56:04;13.00;;;7.10;;
18917;SDS011;9591;52.742;13.650;2023-04-01T09:59:27;10.47;;;6.20;;
18917;SDS011;9591;52.742;13.650;2023-04-01T10:17:10;7.23;;;5.00;;
18917;SDS011;9591;52.742;13.650;2023-04-01T10:20:29;10.97;;;5.77;;
18917;SDS011;9591;52.742;13.650;2023-04-01T10:24:00;8.70;;;5.87;;
18917;SDS011;9591;52.742;13.650;2023-04-01T10:27:21;9.67;;;5.70;;
18917;SDS011;9591;52.742;13.650;2023-04-01T10:30:48;14.00;;;6.33;;
18917;SDS011;9591;52.742;13.650;2023-04-01T10:34:07;9.40;;;6.30;;
18917;SDS011;9591;52.742;13.650;2023-04-01T10:37:11;11.30;;;6.63;;
18917;SDS011;9591;52.742;13.650;2023-04-01T10:40:21;10.90;;;6.10;;
18917;SDS011;9591;52.742;13.650;2023-04-01T10:46:59;9.07;;;5.73;;
18917;SDS011;9591;52.742;13.650;2023-04-01T10:50:25;9.77;;;6.10;;
18917;SDS011;9591;52.742;13.650;2023-04-01T10:53:37;7.57;;;5.23;;
18917;SDS011;9591;52.742;13.650;2023-04-01T10:56:56;7.77;;;5.37;;
18917;SDS011;9591;52.742;13.650;2023-04-01T11:00:27;8.17;;;5.50;;
18917;SDS011;9591;52.742;13.650;2023-04-01T11:08:08;10.10;;;6.20;;
18917;SDS011;9591;52.742;13.650;2023-04-01T11:22:06;10.97;;;6.10;;
18917;SDS011;9591;52.742;13.650;2023-04-01T11:25:21;8.13;;;5.57;;
18917;SDS011;9591;52.742;13.650;2023-04-01T11:28:42;9.20;;;5.37;;
18917;SDS011;9591;52.742;13.650;2023-04-01T11:31:47;9.60;;;5.80;;
18917;SDS011;9591;52.742;13.650;2023-04-01T11:38:07;12.63;;;6.17;;
18917;SDS011;9591;52.742;13.650;2023-04-01T11:41:09;8.63;;;5.53;;
18917;SDS011;9591;52.742;13.650;2023-04-01T11:44:39;15.90;;;5.97;;
18917;SDS011;9591;52.742;13.650;2023-04-01T11:47:55;11.97;;;6.30;;
18917;SDS011;9591;52.742;13.650;2023-04-01T11:50:58;11.83;;;6.53;;
18917;SDS011;9591;52.742;13.650;2023-04-01T11:53:56;8.37;;;5.20;;
18917;SDS011;9591;52.742;13.650;2023-04-01T11:56:53;10.80;;;5.90;;
18917;SDS011;9591;52.742;13.650;2023-04-01T11:59:57;10.17;;;6.40;;
18917;SDS011;9591;52.742;13.650;2023-04-01T12:03:07;12.83;;;6.60;;
18917;SDS011;9591;52.742;13.650;2023-04-01T12:06:08;12.40;;;7.23;;
18917;SDS011;9591;52.742;13.650;2023-04-01T12:09:03;10.23;;;6.50;;
18917;SDS011;9591;52.742;13.650;2023-04-01T12:12:00;11.07;;;6.47;;
18917;SDS011;9591;52.742;13.650;2023-04-01T12:15:02;12.73;;;6.23;;
18917;SDS011;9591;52.742;13.650;2023-04-01T12:18:03;9.27;;;5.33;;
18917;SDS011;9591;52.742;13.650;2023-04-01T12:21:02;12.80;;;6.93;;
18917;SDS011;9591;52.742;13.650;2023-04-01T12:27:42;11.20;;;6.97;;
18917;SDS011;9591;52.742;13.650;2023-04-01T12:30:47;11.83;;;6.77;;
18917;SDS011;9591;52.742;13.650;2023-04-01T12:33:47;8.10;;;5.53;;
18917;SDS011;9591;52.742;13.650;2023-04-01T12:36:46;9.67;;;5.97;;
18917;SDS011;9591;52.742;13.650;2023-04-01T12:39:49;8.63;;;4.50;;
18917;SDS011;9591;52.742;13.650;2023-04-01T12:42:48;11.77;;;5.27;;
18917;SDS011;9591;52.742;13.650;2023-04-01T12:45:45;5.83;;;4.37;;
18917;SDS011;9591;52.742;13.650;2023-04-01T12:48:46;7.50;;;4.73;;
18917;SDS011;9591;52.742;13.650;2023-04-01T12:51:53;8.27;;;4.13;;
18917;SDS011;9591;52.742;13.650;2023-04-01T13:01:47;5.97;;;4.07;;
18917;SDS011;9591;52.742;13.650;2023-04-01T13:04:48;6.37;;;4.00;;
18917;SDS011;9591;52.742;13.650;2023-04-01T13:07:49;6.57;;;4.30;;
18917;SDS011;9591;52.742;13.650;2023-04-01T13:10:48;4.80;;;3.53;;
18917;SDS011;9591;52.742;13.650;2023-04-01T13:14:02;5.80;;;3.90;;
18917;SDS011;9591;52.742;13.650;2023-04-01T13:17:17;5.87;;;3.60;;
18917;SDS011;9591;52.742;13.650;2023-04-01T13:20:12;7.67;;;4.10;;
18917;SDS011;9591;52.742;13.650;2023-04-01T13:23:09;9.53;;;4.50;;
18917;SDS011;9591;52.742;13.650;2023-04-01T13:26:06;7.77;;;3.90;;
18917;SDS011;9591;52.742;13.650;2023-04-01T13:29:01;6.50;;;4.23;;
18917;SDS011;9591;52.742;13.650;2023-04-01T13:32:06;7.73;;;4.30;;
18917;SDS011;9591;52.742;13.650;2023-04-01T13:35:14;9.07;;;4.17;;
18917;SDS011;9591;52.742;13.650;2023-04-01T13:38:12;5.13;;;3.50;;
18917;SDS011;9591;52.742;13.650;2023-04-01T13:41:11;5.17;;;3.97;;
18917;SDS011;9591;52.742;13.650;2023-04-01T13:44:09;6.20;;;3.90;;
18917;SDS011;9591;52.742;13.650;2023-04-01T13:47:12;5.63;;;4.27;;
18917;SDS011;9591;52.742;13.650;2023-04-01T13:50:33;5.20;;;3.77;;
18917;SDS011;9591;52.742;13.650;2023-04-01T13:53:37;6.63;;;3.87;;
18917;SDS011;9591;52.742;13.650;2023-04-01T13:56:44;4.57;;;3.60;;
18917;SDS011;9591;52.742;13.650;2023-04-01T13:59:57;5.90;;;3.50;;
18917;SDS011;9591;52.742;13.650;2023-04-01T14:03:09;9.00;;;3.60;;
18917;SDS011;9591;52.742;13.650;2023-04-01T14:06:20;4.70;;;3.10;;
18917;SDS011;9591;52.742;13.650;2023-04-01T14:09:23;3.57;;;3.03;;
18917;SDS011;9591;52.742;13.650;2023-04-01T14:12:21;4.50;;;3.37;;
18917;SDS011;9591;52.742;13.650;2023-04-01T14:15:20;6.83;;;3.73;;
18917;SDS011;9591;52.742;13.650;2023-04-01T14:18:22;4.60;;;3.20;;
18917;SDS011;9591;52.742;13.650;2023-04-01T14:21:28;7.30;;;3.97;;
18917;SDS011;9591;52.742;13.650;2023-04-01T14:24:32;6.50;;;4.57;;
18917;SDS011;9591;52.742;13.650;2023-04-01T14:27:39;7.37;;;4.57;;
18917;SDS011;9591;52.742;13.650;2023-04-01T14:30:37;5.57;;;3.77;;
18917;SDS011;9591;52.742;13.650;2023-04-01T14:33:34;6.00;;;3.97;;
18917;SDS011;9591;52.742;13.650;2023-04-01T14:36:37;6.80;;;4.10;;
18917;SDS011;9591;52.742;13.650;2023-04-01T14:39:38;9.10;;;4.77;;
18917;SDS011;9591;52.742;13.650;2023-04-01T14:45:52;7.00;;;4.37;;
18917;SDS011;9591;52.742;13.650;2023-04-01T14:48:52;9.30;;;4.57;;
18917;SDS011;9591;52.742;13.650;2023-04-01T14:51:44;7.03;;;3.80;;
18917;SDS011;9591;52.742;13.650;2023-04-01T14:54:33;11.67;;;4.33;;
18917;SDS011;9591;52.742;13.650;2023-04-01T14:57:24;8.60;;;5.03;;
18917;SDS011;9591;52.742;13.650;2023-04-01T15:00:15;9.23;;;4.17;;
18917;SDS011;9591;52.742;13.650;2023-04-01T15:03:06;8.63;;;4.30;;
18917;SDS011;9591;52.742;13.650;2023-04-01T15:06:10;6.43;;;3.97;;
18917;SDS011;9591;52.742;13.650;2023-04-01T15:09:16;10.37;;;4.57;;
18917;SDS011;9591;52.742;13.650;2023-04-01T15:12:11;6.60;;;4.47;;
18917;SDS011;9591;52.742;13.650;2023-04-01T15:18:13;7.30;;;5.13;;
18917;SDS011;9591;52.742;13.650;2023-04-01T15:21:11;6.60;;;4.80;;
18917;SDS011;9591;52.742;13.650;2023-04-01T15:24:06;6.87;;;3.67;;
18917;SDS011;9591;52.742;13.650;2023-04-01T15:27:10;7.53;;;4.10;;
18917;SDS011;9591;52.742;13.650;2023-04-01T15:30:13;8.80;;;4.33;;
18917;SDS011;9591;52.742;13.650;2023-04-01T15:33:13;8.07;;;4.50;;
18917;SDS011;9591;52.742;13.650;2023-04-01T15:36:11;9.70;;;4.20;;
18917;SDS011;9591;52.742;13.650;2023-04-01T15:39:13;9.30;;;3.97;;
18917;SDS011;9591;52.742;13.650;2023-04-01T15:42:11;5.37;;;4.63;;
18917;SDS011;9591;52.742;13.650;2023-04-01T15:48:22;5.80;;;4.23;;
18917;SDS011;9591;52.742;13.650;2023-04-01T15:51:20;9.33;;;4.30;;
18917;SDS011;9591;52.742;13.650;2023-04-01T15:54:23;5.20;;;3.30;;
18917;SDS011;9591;52.742;13.650;2023-04-01T15:57:23;5.90;;;4.10;;
18917;SDS011;9591;52.742;13.650;2023-04-01T16:00:20;10.43;;;5.00;;
18917;SDS011;9591;52.742;13.650;2023-04-01T16:03:18;5.70;;;3.77;;
18917;SDS011;9591;52.742;13.650;2023-04-01T16:06:23;5.83;;;4.07;;
18917;SDS011;9591;52.742;13.650;2023-04-01T16:09:28;10.70;;;4.40;;
18917;SDS011;9591;52.742;13.650;2023-04-01T16:12:31;9.23;;;3.97;;
18917;SDS011;9591;52.742;13.650;2023-04-01T16:15:29;9.00;;;4.70;;
18917;SDS011;9591;52.742;13.650;2023-04-01T16:18:30;7.40;;;4.87;;
18917;SDS011;9591;52.742;13.650;2023-04-01T16:21:35;7.43;;;4.07;;
18917;SDS011;9591;52.742;13.650;2023-04-01T16:24:30;10.80;;;4.93;;
18917;SDS011;9591;52.742;13.650;2023-04-01T16:27:24;6.00;;;4.17;;
18917;SDS011;9591;52.742;13.650;2023-04-01T16:30:22;4.17;;;3.63;;
18917;SDS011;9591;52.742;13.650;2023-04-01T16:33:21;8.60;;;3.60;;
18917;SDS011;9591;52.742;13.650;2023-04-01T16:36:20;8.87;;;4.77;;
18917;SDS011;9591;52.742;13.650;2023-04-01T16:39:18;7.57;;;3.90;;
18917;SDS011;9591;52.742;13.650;2023-04-01T16:42:25;7.57;;;3.57;;
18917;SDS011;9591;52.742;13.650;2023-04-01T16:45:30;8.00;;;3.67;;
18917;SDS011;9591;52.742;13.650;2023-04-01T16:48:25;6.17;;;3.67;;
18917;SDS011;9591;52.742;13.650;2023-04-01T16:51:20;4.97;;;3.23;;
18917;SDS011;9591;52.742;13.650;2023-04-01T16:54:11;5.93;;;3.83;;
18917;SDS011;9591;52.742;13.650;2023-04-01T16:57:03;10.33;;;5.13;;
18917;SDS011;9591;52.742;13.650;2023-04-01T17:00:12;14.33;;;4.10;;
18917;SDS011;9591;52.742;13.650;2023-04-01T17:03:11;6.17;;;3.53;;
18917;SDS011;9591;52.742;13.650;2023-04-01T17:09:16;6.73;;;3.87;;
18917;SDS011;9591;52.742;13.650;2023-04-01T17:12:25;4.70;;;2.63;;
18917;SDS011;9591;52.742;13.650;2023-04-01T17:15:19;10.20;;;5.17;;
18917;SDS011;9591;52.742;13.650;2023-04-01T17:18:13;5.97;;;4.30;;
18917;SDS011;9591;52.742;13.650;2023-04-01T17:21:09;8.03;;;3.80;;
18917;SDS011;9591;52.742;13.650;2023-04-01T17:24:04;8.00;;;4.10;;
18917;SDS011;9591;52.742;13.650;2023-04-01T17:27:06;6.43;;;3.83;;
18917;SDS011;9591;52.742;13.650;2023-04-01T17:30:13;6.73;;;4.40;;
18917;SDS011;9591;52.742;13.650;2023-04-01T17:33:12;5.90;;;4.00;;
18917;SDS011;9591;52.742;13.650;2023-04-01T17:36:16;6.70;;;4.53;;
18917;SDS011;9591;52.742;13.650;2023-04-01T17:39:24;8.57;;;4.93;;
18917;SDS011;9591;52.742;13.650;2023-04-01T17:42:19;9.03;;;4.37;;
18917;SDS011;9591;52.742;13.650;2023-04-01T17:45:16;9.07;;;4.37;;
18917;SDS011;9591;52.742;13.650;2023-04-01T17:48:15;6.97;;;4.00;;
18917;SDS011;9591;52.742;13.650;2023-04-01T17:51:13;5.90;;;3.97;;
18917;SDS011;9591;52.742;13.650;2023-04-01T17:54:11;9.93;;;4.77;;
18917;SDS011;9591;52.742;13.650;2023-04-01T17:57:14;5.10;;;3.80;;
18917;SDS011;9591;52.742;13.650;2023-04-01T18:00:22;7.93;;;4.83;;
18917;SDS011;9591;52.742;13.650;2023-04-01T18:03:33;4.37;;;3.97;;
18917;SDS011;9591;52.742;13.650;2023-04-01T18:06:40;8.27;;;4.93;;
18917;SDS011;9591;52.742;13.650;2023-04-01T18:09:39;8.40;;;4.87;;
18917;SDS011;9591;52.742;13.650;2023-04-01T18:12:36;10.03;;;4.50;;
18917;SDS011;9591;52.742;13.650;2023-04-01T18:15:38;13.47;;;4.63;;
18917;SDS011;9591;52.742;13.650;2023-04-01T18:18:46;9.80;;;5.23;;
18917;SDS011;9591;52.742;13.650;2023-04-01T18:21:43;10.20;;;5.60;;
18917;SDS011;9591;52.742;13.650;2023-04-01T18:24:33;8.20;;;4.60;;
18917;SDS011;9591;52.742;13.650;2023-04-01T18:27:29;13.13;;;6.17;;
18917;SDS011;9591;52.742;13.650;2023-04-01T18:30:20;10.80;;;5.73;;
18917;SDS011;9591;52.742;13.650;2023-04-01T18:33:16;15.33;;;5.27;;
18917;SDS011;9591;52.742;13.650;2023-04-01T18:36:16;10.13;;;5.63;;
18917;SDS011;9591;52.742;13.650;2023-04-01T18:39:10;9.80;;;5.50;;
18917;SDS011;9591;52.742;13.650;2023-04-01T18:42:03;9.97;;;5.50;;
18917;SDS011;9591;52.742;13.650;2023-04-01T18:44:57;14.13;;;5.10;;
18917;SDS011;9591;52.742;13.650;2023-04-01T18:47:58;11.93;;;5.60;;
18917;SDS011;9591;52.742;13.650;2023-04-01T18:50:55;12.60;;;5.70;;
18917;SDS011;9591;52.742;13.650;2023-04-01T18:53:47;10.63;;;5.53;;
18917;SDS011;9591;52.742;13.650;2023-04-01T18:56:39;12.10;;;6.73;;
18917;SDS011;9591;52.742;13.650;2023-04-01T18:59:29;13.57;;;6.03;;